createdAt,value
2022-09-07T00:00:02.062Z,0
2022-09-07T00:01:02.287Z,0
2022-09-07T00:02:02.794Z,0
2022-09-07T00:03:03.267Z,0
2022-09-07T00:04:03.731Z,0
2022-09-07T00:05:03.122Z,0
2022-09-07T00:06:03.863Z,0
2022-09-07T00:07:04.821Z,0
2022-09-07T00:08:05.031Z,0
2022-09-07T00:09:04.958Z,0
2022-09-07T00:10:05.348Z,0
2022-09-07T00:11:06.289Z,0
2022-09-07T00:12:06.796Z,0
2022-09-07T00:13:07.003Z,0
2022-09-07T00:14:07.938Z,0
2022-09-07T00:15:07.866Z,0
2022-09-07T00:16:09.075Z,0
2022-09-07T00:17:09.360Z,0
2022-09-07T00:18:09.287Z,0
2022-09-07T00:19:09.924Z,0
2022-09-07T00:20:11.432Z,0
2022-09-07T00:21:11.342Z,0
2022-09-07T00:22:11.969Z,0
2022-09-07T00:23:12.884Z,0
2022-09-07T00:24:14.093Z,0
2022-09-07T00:25:13.736Z,0
2022-09-07T00:26:14.733Z,0
2022-09-07T00:27:15.665Z,0
2022-09-07T00:28:15.604Z,0
2022-09-07T00:29:16.535Z,0
2022-09-07T00:30:16.895Z,0
2022-09-07T00:31:18.433Z,0
2022-09-07T00:32:18.104Z,0
2022-09-07T00:33:19.031Z,0
2022-09-07T00:34:19.665Z,0
2022-09-07T00:35:20.883Z,0
2022-09-07T00:36:22.222Z,0
2022-09-07T00:37:22.454Z,0
2022-09-07T00:38:22.964Z,0
2022-09-07T00:39:23.173Z,0
2022-09-07T00:40:23.085Z,0
2022-09-07T00:41:23.708Z,0
2022-09-07T00:42:24.358Z,0
2022-09-07T00:43:25.573Z,0
2022-09-07T00:44:26.075Z,0
2022-09-07T00:45:26.007Z,0
2022-09-07T00:46:26.899Z,0
2022-09-07T00:47:26.857Z,0
2022-09-07T00:48:27.833Z,0
2022-09-07T00:49:29.057Z,0
2022-09-07T00:50:29.261Z,0
2022-09-07T00:51:29.192Z,0
2022-09-07T00:52:30.431Z,0
2022-09-07T00:53:30.623Z,0
2022-09-07T00:54:30.535Z,0
2022-09-07T00:55:32.043Z,0
2022-09-07T00:56:32.206Z,0
2022-09-07T00:57:33.411Z,0
2022-09-07T00:58:33.959Z,0
2022-09-07T00:59:33.894Z,0
2022-09-07T01:00:34.526Z,0
2022-09-07T01:01:36.667Z,0
2022-09-07T01:02:38.162Z,0
2022-09-07T01:03:37.186Z,0
2022-09-07T01:04:37.809Z,0
2022-09-07T01:05:39.017Z,0
2022-09-07T01:06:40.357Z,0
2022-09-07T01:07:39.983Z,0
2022-09-07T01:08:41.375Z,0
2022-09-07T01:09:41.282Z,0
2022-09-07T01:10:42.480Z,0
2022-09-07T01:11:42.402Z,0
2022-09-07T01:12:43.909Z,0
2022-09-07T01:13:43.554Z,0
2022-09-07T01:14:44.468Z,0
2022-09-07T01:15:45.337Z,0
2022-09-07T01:16:46.331Z,0
2022-09-07T01:17:47.284Z,0
2022-09-07T01:18:48.025Z,0
2022-09-07T01:19:47.960Z,0
2022-09-07T01:20:48.159Z,0
2022-09-07T01:21:48.667Z,0
2022-09-07T01:22:48.874Z,0
2022-09-07T01:23:49.243Z,0
2022-09-07T01:24:50.163Z,0
2022-09-07T01:25:51.362Z,0
2022-09-07T01:26:51.948Z,0
2022-09-07T01:27:51.591Z,0
2022-09-07T01:28:52.516Z,0
2022-09-07T01:29:53.238Z,0
2022-09-07T01:30:54.695Z,0
2022-09-07T01:31:54.923Z,0
2022-09-07T01:32:54.251Z,0
2022-09-07T01:33:55.180Z,0
2022-09-07T01:34:56.399Z,0
2022-09-07T01:35:56.602Z,0
2022-09-07T01:36:57.183Z,0
2022-09-07T01:38:02.041Z,0
2022-09-07T01:38:58.239Z,0
2022-09-07T01:39:59.291Z,0
2022-09-07T01:40:59.196Z,0
2022-09-07T01:42:00.114Z,0
2022-09-07T01:43:01.044Z,0
2022-09-07T01:44:02.230Z,0
2022-09-07T01:45:02.861Z,0
2022-09-07T01:46:04.763Z,0
2022-09-07T01:47:04.600Z,0
2022-09-07T01:48:05.801Z,0
2022-09-07T01:49:05.400Z,0
2022-09-07T01:50:06.595Z,0
2022-09-07T01:51:06.791Z,0
2022-09-07T01:52:06.987Z,0
2022-09-07T01:53:07.334Z,0
2022-09-07T01:54:08.830Z,0
2022-09-07T01:55:08.759Z,0
2022-09-07T01:56:09.374Z,0
2022-09-07T01:57:10.098Z,0
2022-09-07T01:58:10.723Z,0
2022-09-07T01:59:12.224Z,0
2022-09-07T02:00:11.876Z,0
2022-09-07T02:01:12.835Z,0
2022-09-07T02:02:14.546Z,0
2022-09-07T02:03:15.140Z,0
2022-09-07T02:04:15.642Z,0
2022-09-07T02:05:15.016Z,0
2022-09-07T02:06:15.634Z,0
2022-09-07T02:07:16.529Z,0
2022-09-07T02:08:17.452Z,0
2022-09-07T02:09:18.667Z,0
2022-09-07T02:10:18.663Z,0
2022-09-07T02:11:19.563Z,0
2022-09-07T02:12:20.764Z,0
2022-09-07T02:13:20.665Z,0
2022-09-07T02:14:21.872Z,0
2022-09-07T02:15:23.102Z,0
2022-09-07T02:16:23.365Z,0
2022-09-07T02:17:23.734Z,0
2022-09-07T02:18:23.654Z,0
2022-09-07T02:19:24.303Z,0
2022-09-07T02:20:25.221Z,0
2022-09-07T02:21:26.128Z,0
2022-09-07T02:22:27.330Z,0
2022-09-07T02:23:27.264Z,0
2022-09-07T02:24:28.167Z,0
2022-09-07T02:25:29.668Z,0
2022-09-07T02:26:29.576Z,0
2022-09-07T02:27:30.044Z,0
2022-09-07T02:28:31.093Z,0
2022-09-07T02:29:36.304Z,0
2022-09-07T02:30:32.341Z,0
2022-09-07T02:31:33.881Z,0
2022-09-07T02:32:33.817Z,0
2022-09-07T02:33:35.045Z,0
2022-09-07T02:34:35.547Z,0
2022-09-07T02:35:35.742Z,0
2022-09-07T02:36:36.240Z,0
2022-09-07T02:37:36.253Z,0
2022-09-07T02:38:37.447Z,0
2022-09-07T02:39:37.205Z,0
2022-09-07T02:40:38.437Z,0
2022-09-07T02:41:39.358Z,0
2022-09-07T02:42:39.761Z,0
2022-09-07T02:43:41.261Z,0
2022-09-07T02:44:41.162Z,0
2022-09-07T02:45:42.366Z,0
2022-09-07T02:46:43.066Z,0
2022-09-07T02:47:43.118Z,0
2022-09-07T02:48:43.781Z,0
2022-09-07T02:49:44.977Z,0
2022-09-07T02:50:44.880Z,0
2022-09-07T02:51:46.377Z,0
2022-09-07T02:52:46.578Z,0
2022-09-07T02:53:46.785Z,0
2022-09-07T02:54:46.992Z,0
2022-09-07T02:55:47.194Z,0
2022-09-07T02:56:47.097Z,0
2022-09-07T02:57:47.847Z,0
2022-09-07T02:58:48.052Z,0
2022-09-07T02:59:48.706Z,0
2022-09-07T03:00:49.635Z,0
2022-09-07T03:01:51.036Z,0
2022-09-07T03:02:51.428Z,0
2022-09-07T03:03:51.373Z,0
2022-09-07T03:04:52.296Z,0
2022-09-07T03:05:52.850Z,0
2022-09-07T03:06:53.354Z,0
2022-09-07T03:07:56.297Z,0
2022-09-07T03:08:53.925Z,0
2022-09-07T03:09:55.420Z,0
2022-09-07T03:10:55.085Z,0
2022-09-07T03:11:56.580Z,0
2022-09-07T03:12:55.919Z,0
2022-09-07T03:13:56.541Z,0
2022-09-07T03:14:57.763Z,0
2022-09-07T03:16:01.776Z,0
2022-09-07T03:16:58.742Z,0
2022-09-07T03:18:00.031Z,0
2022-09-07T03:19:00.533Z,0
2022-09-07T03:20:00.441Z,0
2022-09-07T03:21:01.663Z,0
2022-09-07T03:22:02.592Z,0
2022-09-07T03:23:03.524Z,0
2022-09-07T03:24:08.307Z,0
2022-09-07T03:25:04.230Z,0
2022-09-07T03:26:04.426Z,0
2022-09-07T03:27:04.626Z,0
2022-09-07T03:28:05.653Z,0
2022-09-07T03:29:05.881Z,0
2022-09-07T03:30:06.097Z,0
2022-09-07T03:31:06.862Z,0
2022-09-07T03:32:06.498Z,0
2022-09-07T03:33:07.116Z,0
2022-09-07T03:34:08.619Z,0
2022-09-07T03:35:07.943Z,0
2022-09-07T03:36:09.280Z,0
2022-09-07T03:37:10.771Z,0
2022-09-07T03:38:11.530Z,0
2022-09-07T03:39:11.157Z,0
2022-09-07T03:40:12.208Z,0
2022-09-07T03:41:11.842Z,0
2022-09-07T03:42:13.064Z,0
2022-09-07T03:43:13.267Z,0
2022-09-07T03:44:13.773Z,0
2022-09-07T03:45:13.706Z,0
2022-09-07T03:46:14.828Z,0
2022-09-07T03:47:15.346Z,0
2022-09-07T03:48:15.769Z,0
2022-09-07T03:49:16.966Z,0
2022-09-07T03:50:18.188Z,0
2022-09-07T03:51:18.114Z,0
2022-09-07T03:52:19.325Z,0
2022-09-07T03:53:19.551Z,0
2022-09-07T03:54:19.752Z,0
2022-09-07T03:55:20.671Z,0
2022-09-07T03:56:20.594Z,0
2022-09-07T03:57:21.233Z,0
2022-09-07T03:58:21.982Z,0
2022-09-07T03:59:22.931Z,0
2022-09-07T04:00:22.549Z,0
2022-09-07T04:01:24.049Z,0
2022-09-07T04:02:24.879Z,0
2022-09-07T04:03:25.083Z,0
2022-09-07T04:04:25.277Z,0
2022-09-07T04:05:26.191Z,0
2022-09-07T04:06:26.385Z,0
2022-09-07T04:07:26.882Z,0
2022-09-07T04:08:27.652Z,0
2022-09-07T04:09:28.602Z,0
2022-09-07T04:10:29.255Z,0
2022-09-07T04:11:30.479Z,0
2022-09-07T04:12:30.127Z,0
2022-09-07T04:13:31.053Z,0
2022-09-07T04:14:31.673Z,0
2022-09-07T04:15:32.893Z,0
2022-09-07T04:16:33.247Z,0
2022-09-07T04:17:34.484Z,0
2022-09-07T04:18:35.494Z,0
2022-09-07T04:19:35.113Z,0
2022-09-07T04:20:36.606Z,0
2022-09-07T04:21:37.107Z,0
2022-09-07T04:22:37.029Z,0
2022-09-07T04:23:37.529Z,0
2022-09-07T04:24:37.729Z,0
2022-09-07T04:25:37.950Z,0
2022-09-07T04:26:38.171Z,0
2022-09-07T04:27:38.818Z,0
2022-09-07T04:28:38.781Z,0
2022-09-07T04:29:39.704Z,0
2022-09-07T04:30:40.879Z,0
2022-09-07T04:31:40.427Z,0
2022-09-07T04:32:41.923Z,0
2022-09-07T04:33:42.115Z,0
2022-09-07T04:34:42.614Z,0
2022-09-07T04:35:43.112Z,0
2022-09-07T04:36:43.012Z,0
2022-09-07T04:37:44.508Z,0
2022-09-07T04:38:44.242Z,0
2022-09-07T04:39:45.127Z,0
2022-09-07T04:40:46.350Z,0
2022-09-07T04:41:46.847Z,0
2022-09-07T04:42:47.050Z,0
2022-09-07T04:43:47.091Z,0
2022-09-07T04:44:47.996Z,0
2022-09-07T04:45:48.757Z,0
2022-09-07T04:46:49.964Z,0
2022-09-07T04:47:50.885Z,0
2022-09-07T04:48:51.597Z,0
2022-09-07T04:49:52.798Z,0
2022-09-07T04:50:54.042Z,0
2022-09-07T04:51:54.542Z,0
2022-09-07T04:52:54.477Z,0
2022-09-07T04:53:55.787Z,0
2022-09-07T04:54:55.997Z,0
2022-09-07T04:55:56.495Z,0
2022-09-07T04:56:56.400Z,0
2022-09-07T04:57:57.624Z,0
2022-09-07T04:58:58.067Z,0
2022-09-07T04:59:57.968Z,0
2022-09-07T05:00:59.382Z,0
2022-09-07T05:01:59.704Z,0
2022-09-07T05:02:59.991Z,0
2022-09-07T05:04:00.193Z,0
2022-09-07T05:05:04.587Z,0
2022-09-07T05:06:00.794Z,0
2022-09-07T05:07:02.013Z,0
2022-09-07T05:08:02.067Z,0
2022-09-07T05:09:01.778Z,0
2022-09-07T05:10:03.326Z,0
2022-09-07T05:11:02.930Z,0
2022-09-07T05:12:04.433Z,0
2022-09-07T05:13:04.356Z,0
2022-09-07T05:14:04.979Z,0
2022-09-07T05:15:05.906Z,0
2022-09-07T05:16:07.215Z,0
2022-09-07T05:17:07.413Z,0
2022-09-07T05:18:07.031Z,0
2022-09-07T05:19:07.776Z,0
2022-09-07T05:20:08.710Z,5.63
2022-09-07T05:21:08.601Z,5.63
2022-09-07T05:22:09.806Z,5.63
2022-09-07T05:23:09.706Z,5.63
2022-09-07T05:24:10.634Z,5.63
2022-09-07T05:25:12.143Z,5.63
2022-09-07T05:26:12.077Z,5.63
2022-09-07T05:27:13.271Z,5.63
2022-09-07T05:28:17.282Z,5.63
2022-09-07T05:31:19.951Z,5.63
2022-09-07T05:31:36.969Z,5.63
2022-09-07T05:32:37.893Z,5.63
2022-09-07T05:34:41.278Z,11.25
2022-09-07T05:35:03.966Z,11.25
2022-09-07T05:35:59.191Z,11.25
2022-09-07T05:36:59.120Z,11.25
2022-09-07T05:38:00.342Z,11.25
2022-09-07T05:39:00.847Z,11.25
2022-09-07T05:40:01.650Z,11.25
2022-09-07T05:41:01.799Z,16.88
2022-09-07T05:42:03.017Z,16.88
2022-09-07T05:43:02.643Z,16.88
2022-09-07T05:45:03.247Z,16.88
2022-09-07T05:45:19.887Z,16.88
2022-09-07T05:46:21.246Z,16.88
2022-09-07T05:47:21.184Z,16.88
2022-09-07T05:48:22.115Z,16.88
2022-09-07T05:49:22.613Z,16.88
2022-09-07T05:50:22.526Z,16.88
2022-09-07T05:51:23.829Z,16.88
2022-09-07T05:52:23.774Z,16.88
2022-09-07T05:53:24.282Z,22.5
2022-09-07T05:54:24.193Z,22.5
2022-09-07T05:55:46.082Z,22.5
2022-09-07T05:56:26.020Z,22.5
2022-09-07T05:57:27.299Z,22.5
2022-09-07T05:58:27.853Z,22.5
2022-09-07T05:59:28.374Z,22.5
2022-09-07T06:00:28.618Z,22.5
2022-09-07T06:01:28.423Z,22.5
2022-09-07T06:02:29.911Z,16.88
2022-09-07T06:03:31.186Z,22.5
2022-09-07T06:04:31.119Z,16.88
2022-09-07T06:05:32.041Z,22.5
2022-09-07T06:06:32.546Z,16.88
2022-09-07T06:07:38.454Z,16.88
2022-09-07T06:08:33.018Z,28.13
2022-09-07T06:09:36.128Z,28.13
2022-09-07T06:11:03.188Z,28.13
2022-09-07T06:11:50.923Z,28.13
2022-09-07T06:12:55.032Z,28.13
2022-09-07T06:13:51.978Z,28.13
2022-09-07T06:14:52.198Z,28.13
2022-09-07T06:15:53.119Z,28.13
2022-09-07T06:16:53.817Z,33.75
2022-09-07T06:17:53.771Z,28.13
2022-09-07T06:18:54.704Z,28.13
2022-09-07T06:19:56.206Z,33.75
2022-09-07T06:20:56.137Z,33.75
2022-09-07T06:21:56.889Z,39.38
2022-09-07T06:22:57.530Z,45
2022-09-07T06:23:57.865Z,258.75
2022-09-07T06:24:58.813Z,84.38
2022-09-07T06:25:59.313Z,39.38
2022-09-07T06:26:58.916Z,39.38
2022-09-07T06:28:00.113Z,95.63
2022-09-07T06:29:08.988Z,759.38
2022-09-07T06:30:00.605Z,292.5
2022-09-07T06:31:01.575Z,990
2022-09-07T06:33:01.688Z,444.38
2022-09-07T06:33:21.860Z,376.88
2022-09-07T06:34:20.106Z,101.25
2022-09-07T06:35:20.062Z,410.63
2022-09-07T06:36:21.274Z,382.5
2022-09-07T06:37:21.474Z,298.13
2022-09-07T06:38:22.705Z,95.63
2022-09-07T06:39:22.640Z,61.88
2022-09-07T06:40:23.192Z,56.25
2022-09-07T06:42:22.819Z,50.63
2022-09-07T06:43:10.302Z,67.5
2022-09-07T06:44:09.927Z,67.5
2022-09-07T06:45:10.577Z,78.75
2022-09-07T06:47:10.671Z,67.5
2022-09-07T06:47:27.864Z,61.88
2022-09-07T06:48:28.791Z,140.63
2022-09-07T06:49:28.991Z,118.13
2022-09-07T06:50:29.553Z,112.5
2022-09-07T06:51:29.777Z,118.13
2022-09-07T06:52:29.801Z,118.13
2022-09-07T06:55:13.016Z,61.88
2022-09-07T06:56:13.516Z,95.63
2022-09-07T06:57:13.728Z,106.88
2022-09-07T06:58:13.658Z,118.13
2022-09-07T06:59:14.861Z,129.38
2022-09-07T07:00:15.518Z,73.13
2022-09-07T07:01:16.550Z,73.13
2022-09-07T07:02:16.811Z,56.25
2022-09-07T07:03:17.217Z,56.25
2022-09-07T07:04:18.081Z,50.63
2022-09-07T07:05:18.298Z,50.63
2022-09-07T07:06:18.510Z,50.63
2022-09-07T07:07:18.425Z,50.63
2022-09-07T07:08:19.635Z,50.63
2022-09-07T07:09:19.636Z,50.63
2022-09-07T07:10:24.447Z,50.63
2022-09-07T07:11:20.443Z,50.63
2022-09-07T07:14:22.175Z,45
2022-09-07T07:15:23.112Z,39.38
2022-09-07T07:16:24.393Z,39.38
2022-09-07T07:17:24.754Z,39.38
2022-09-07T07:18:37.961Z,39.38
2022-09-07T07:19:25.587Z,39.38
2022-09-07T07:20:27.103Z,45
2022-09-07T07:21:28.915Z,45
2022-09-07T07:23:01.568Z,50.63
2022-09-07T07:23:27.850Z,50.63
2022-09-07T07:24:28.900Z,50.63
2022-09-07T07:25:28.524Z,50.63
2022-09-07T07:26:29.751Z,50.63
2022-09-07T07:27:29.559Z,56.25
2022-09-07T07:29:18.511Z,56.25
2022-09-07T07:29:39.243Z,56.25
2022-09-07T07:30:36.177Z,56.25
2022-09-07T07:31:36.836Z,56.25
2022-09-07T07:32:38.035Z,56.25
2022-09-07T07:33:38.666Z,56.25
2022-09-07T07:34:40.036Z,56.25
2022-09-07T07:35:40.058Z,61.88
2022-09-07T07:36:39.982Z,73.13
2022-09-07T07:37:44.804Z,73.13
2022-09-07T07:40:18.542Z,67.5
2022-09-07T07:42:13.745Z,67.5
2022-09-07T07:43:08.083Z,73.13
2022-09-07T07:44:08.714Z,78.75
2022-09-07T07:46:15.074Z,78.75
2022-09-07T07:47:03.385Z,78.75
2022-09-07T07:48:03.926Z,78.75
2022-09-07T07:49:03.882Z,78.75
2022-09-07T07:50:44.055Z,78.75
2022-09-07T07:51:11.427Z,78.75
2022-09-07T07:53:49.560Z,84.38
2022-09-07T07:54:07.416Z,84.38
2022-09-07T07:55:42.735Z,90
2022-09-07T07:56:07.251Z,84.38
2022-09-07T07:57:06.610Z,90
2022-09-07T07:58:07.607Z,84.38
2022-09-07T07:59:09.890Z,84.38
2022-09-07T08:00:08.904Z,78.75
2022-09-07T08:01:12.350Z,73.13
2022-09-07T08:02:11.449Z,67.5
2022-09-07T08:03:11.078Z,61.88
2022-09-07T08:04:12.324Z,61.88
2022-09-07T08:05:13.071Z,56.25
2022-09-07T08:06:13.018Z,56.25
2022-09-07T08:07:22.183Z,50.63
2022-09-07T08:08:14.610Z,50.63
2022-09-07T08:09:15.831Z,50.63
2022-09-07T08:10:15.755Z,56.25
2022-09-07T08:11:15.731Z,56.25
2022-09-07T08:12:16.507Z,61.88
2022-09-07T08:13:17.161Z,61.88
2022-09-07T08:14:18.389Z,56.25
2022-09-07T08:15:19.608Z,50.63
2022-09-07T08:16:19.514Z,50.63
2022-09-07T08:17:19.142Z,50.63
2022-09-07T08:18:19.953Z,50.63
2022-09-07T08:19:20.912Z,50.63
2022-09-07T08:20:22.127Z,50.63
2022-09-07T08:21:22.741Z,56.25
2022-09-07T08:22:22.391Z,61.88
2022-09-07T08:23:23.615Z,67.5
2022-09-07T08:24:24.312Z,67.5
2022-09-07T08:25:25.524Z,67.5
2022-09-07T08:26:25.731Z,73.13
2022-09-07T08:27:26.390Z,84.38
2022-09-07T08:28:26.555Z,78.75
2022-09-07T08:29:27.469Z,78.75
2022-09-07T08:30:28.784Z,84.38
2022-09-07T08:31:29.384Z,95.63
2022-09-07T08:32:29.342Z,112.5
2022-09-07T08:33:30.680Z,112.5
2022-09-07T08:34:30.661Z,106.88
2022-09-07T08:35:30.943Z,123.75
2022-09-07T08:36:32.772Z,118.13
2022-09-07T08:37:32.714Z,95.63
2022-09-07T08:38:36.789Z,95.63
2022-09-07T08:39:33.229Z,95.63
2022-09-07T08:40:34.144Z,101.25
2022-09-07T08:41:34.351Z,95.63
2022-09-07T08:42:35.327Z,95.63
2022-09-07T08:43:35.667Z,90
2022-09-07T08:44:35.833Z,84.38
2022-09-07T08:45:35.213Z,84.38
2022-09-07T08:46:36.498Z,84.38
2022-09-07T08:47:37.179Z,78.75
2022-09-07T08:48:38.212Z,78.75
2022-09-07T08:49:39.747Z,73.13
2022-09-07T08:50:39.681Z,67.5
2022-09-07T08:51:41.003Z,73.13
2022-09-07T08:52:40.934Z,78.75
2022-09-07T08:53:42.345Z,84.38
2022-09-07T08:54:42.559Z,101.25
2022-09-07T08:55:42.463Z,106.88
2022-09-07T08:57:26.163Z,101.25
2022-09-07T08:57:43.392Z,112.5
2022-09-07T08:59:06.994Z,118.13
2022-09-07T09:00:06.941Z,101.25
2022-09-07T09:02:26.855Z,78.75
2022-09-07T09:03:29.935Z,67.5
2022-09-07T09:06:23.600Z,61.88
2022-09-07T09:06:41.816Z,61.88
2022-09-07T09:07:40.799Z,61.88
2022-09-07T09:08:41.436Z,56.25
2022-09-07T09:09:42.645Z,56.25
2022-09-07T09:10:43.152Z,56.25
2022-09-07T09:11:43.782Z,56.25
2022-09-07T09:12:48.665Z,50.63
2022-09-07T09:13:45.229Z,50.63
2022-09-07T09:14:45.151Z,50.63
2022-09-07T09:15:46.675Z,45
2022-09-07T09:16:48.248Z,45
2022-09-07T09:17:46.582Z,39.38
2022-09-07T09:18:47.357Z,39.38
2022-09-07T09:19:48.587Z,39.38
2022-09-07T09:20:48.239Z,39.38
2022-09-07T09:21:49.624Z,39.38
2022-09-07T09:22:49.573Z,39.38
2022-09-07T09:23:50.780Z,39.38
2022-09-07T09:24:51.418Z,39.38
2022-09-07T09:25:52.038Z,39.38
2022-09-07T09:26:53.212Z,39.38
2022-09-07T09:27:52.645Z,39.38
2022-09-07T09:28:54.147Z,39.38
2022-09-07T09:29:54.055Z,39.38
2022-09-07T09:30:55.100Z,45
2022-09-07T09:31:56.266Z,45
2022-09-07T09:32:56.914Z,45
2022-09-07T09:33:58.123Z,50.63
2022-09-07T09:34:58.064Z,50.63
2022-09-07T09:35:59.291Z,56.25
2022-09-07T09:36:59.553Z,56.25
2022-09-07T09:37:59.825Z,56.25
2022-09-07T09:38:59.734Z,61.88
2022-09-07T09:40:08.966Z,61.88
2022-09-07T09:41:01.303Z,61.88
2022-09-07T09:42:02.347Z,61.88
2022-09-07T09:43:02.964Z,61.88
2022-09-07T09:44:04.172Z,56.25
2022-09-07T09:45:04.085Z,56.25
2022-09-07T09:46:35.014Z,56.25
2022-09-07T09:47:46.659Z,50.63
2022-09-07T09:48:07.501Z,50.63
2022-09-07T09:49:07.407Z,50.63
2022-09-07T09:50:08.549Z,50.63
2022-09-07T09:52:51.760Z,56.25
2022-09-07T09:53:39.734Z,61.88
2022-09-07T09:54:39.976Z,67.5
2022-09-07T09:55:51.147Z,73.13
2022-09-07T09:56:40.758Z,78.75
2022-09-07T09:57:42.306Z,95.63
2022-09-07T10:00:26.243Z,129.38
2022-09-07T10:01:35.359Z,112.5
2022-09-07T10:04:20.275Z,95.63
2022-09-07T10:04:41.414Z,95.63
2022-09-07T10:05:37.343Z,90
2022-09-07T10:06:38.098Z,90
2022-09-07T10:07:38.770Z,90
2022-09-07T10:08:39.902Z,90
2022-09-07T10:09:43.584Z,90
2022-09-07T10:10:40.495Z,84.38
2022-09-07T10:12:21.502Z,78.75
2022-09-07T10:12:41.714Z,78.75
2022-09-07T10:13:41.918Z,78.75
2022-09-07T10:14:41.555Z,73.13
2022-09-07T10:15:51.968Z,73.13
2022-09-07T10:16:43.826Z,73.13
2022-09-07T10:17:43.723Z,73.13
2022-09-07T10:18:44.133Z,73.13
2022-09-07T10:19:44.768Z,73.13
2022-09-07T10:20:45.996Z,73.13
2022-09-07T10:21:46.348Z,73.13
2022-09-07T10:22:51.392Z,78.75
2022-09-07T10:23:47.425Z,78.75
2022-09-07T10:24:49.009Z,78.75
2022-09-07T10:25:48.940Z,78.75
2022-09-07T10:26:50.257Z,84.38
2022-09-07T10:27:50.759Z,90
2022-09-07T10:29:21.730Z,95.63
2022-09-07T10:29:52.336Z,95.63
2022-09-07T10:30:53.030Z,95.63
2022-09-07T10:31:53.417Z,101.25
2022-09-07T10:32:53.040Z,95.63
2022-09-07T10:34:27.007Z,101.25
2022-09-07T10:34:53.979Z,101.25
2022-09-07T10:35:54.877Z,118.13
2022-09-07T10:36:55.656Z,140.63
2022-09-07T10:37:56.647Z,264.38
2022-09-07T10:38:57.651Z,163.13
2022-09-07T10:40:03.740Z,157.5
2022-09-07T10:40:59.240Z,151.88
2022-09-07T10:41:59.183Z,196.88
2022-09-07T10:43:37.142Z,258.75
2022-09-07T10:44:00.072Z,191.25
2022-09-07T10:45:00.769Z,196.88
2022-09-07T10:46:01.710Z,191.25
2022-09-07T10:47:19.007Z,174.38
2022-09-07T10:48:02.990Z,213.75
2022-09-07T10:49:03.342Z,191.25
2022-09-07T10:50:34.726Z,202.5
2022-09-07T10:51:17.933Z,213.75
2022-09-07T10:52:05.859Z,168.75
2022-09-07T10:53:40.539Z,264.38
2022-09-07T10:54:47.520Z,270
2022-09-07T10:55:08.077Z,264.38
2022-09-07T10:56:07.988Z,247.5
2022-09-07T10:57:09.575Z,275.63
2022-09-07T10:58:09.220Z,292.5
2022-09-07T10:59:25.341Z,270
2022-09-07T11:00:26.969Z,241.88
2022-09-07T11:01:10.876Z,236.25
2022-09-07T11:02:11.354Z,286.88
2022-09-07T11:03:42.598Z,281.25
2022-09-07T11:04:12.691Z,292.5
2022-09-07T11:05:12.623Z,320.63
2022-09-07T11:06:13.598Z,298.13
2022-09-07T11:07:20.101Z,309.38
2022-09-07T11:08:14.731Z,315
2022-09-07T11:09:44.773Z,298.13
2022-09-07T11:10:16.606Z,303.75
2022-09-07T11:11:16.521Z,292.5
2022-09-07T11:12:18.182Z,270
2022-09-07T11:13:18.415Z,309.38
2022-09-07T11:14:29.941Z,326.25
2022-09-07T11:15:19.852Z,326.25
2022-09-07T11:17:02.232Z,337.5
2022-09-07T11:17:55.756Z,326.25
2022-09-07T11:18:50.904Z,303.75
2022-09-07T11:19:52.203Z,303.75
2022-09-07T11:20:51.836Z,241.88
2022-09-07T11:22:22.167Z,163.13
2022-09-07T11:22:53.382Z,163.13
2022-09-07T11:23:57.522Z,151.88
2022-09-07T11:25:34.375Z,196.88
2022-09-07T11:25:57.837Z,151.88
2022-09-07T11:26:55.061Z,219.38
2022-09-07T11:27:55.494Z,168.75
2022-09-07T11:29:30.415Z,168.75
2022-09-07T11:29:57.639Z,196.88
2022-09-07T11:31:03.154Z,174.38
2022-09-07T11:31:59.097Z,230.63
2022-09-07T11:33:00.015Z,247.5
2022-09-07T11:34:40.609Z,348.75
2022-09-07T11:35:03.667Z,281.25
2022-09-07T11:36:02.877Z,258.75
2022-09-07T11:37:04.108Z,343.13
2022-09-07T11:38:04.220Z,354.38
2022-09-07T11:39:04.135Z,376.88
2022-09-07T11:40:05.004Z,371.25
2022-09-07T11:41:06.011Z,365.63
2022-09-07T11:43:11.244Z,343.13
2022-09-07T11:44:07.897Z,382.5
2022-09-07T11:45:07.802Z,388.13
2022-09-07T11:46:08.962Z,393.75
2022-09-07T11:47:08.636Z,365.63
2022-09-07T11:48:08.778Z,382.5
2022-09-07T11:49:10.183Z,348.75
2022-09-07T11:50:15.261Z,343.13
2022-09-07T11:51:11.500Z,320.63
2022-09-07T11:52:16.027Z,320.63
2022-09-07T11:53:11.670Z,298.13
2022-09-07T11:54:12.884Z,275.63
2022-09-07T11:55:13.839Z,331.88
2022-09-07T11:56:14.557Z,360
2022-09-07T11:57:14.753Z,371.25
2022-09-07T11:58:14.879Z,326.25
2022-09-07T11:59:34.894Z,337.5
2022-09-07T12:00:16.435Z,360
2022-09-07T12:01:17.374Z,360
2022-09-07T12:02:17.591Z,354.38
2022-09-07T12:03:22.176Z,354.38
2022-09-07T12:04:26.749Z,371.25
2022-09-07T12:05:19.894Z,376.88
2022-09-07T12:06:19.526Z,405
2022-09-07T12:07:20.735Z,382.5
2022-09-07T12:08:21.734Z,320.63
2022-09-07T12:09:22.092Z,331.88
2022-09-07T12:10:24.230Z,343.13
2022-09-07T12:11:28.838Z,320.63
2022-09-07T12:12:25.045Z,343.13
2022-09-07T12:13:25.696Z,354.38
2022-09-07T12:14:27.134Z,337.5
2022-09-07T12:15:27.101Z,309.38
2022-09-07T12:16:28.474Z,331.88
2022-09-07T12:17:30.355Z,315
2022-09-07T12:18:29.734Z,326.25
2022-09-07T12:19:29.638Z,264.38
2022-09-07T12:20:30.281Z,320.63
2022-09-07T12:21:31.241Z,320.63
2022-09-07T12:22:31.157Z,320.63
2022-09-07T12:23:32.688Z,298.13
2022-09-07T12:24:32.047Z,123.75
2022-09-07T12:25:33.262Z,247.5
2022-09-07T12:26:34.631Z,292.5
2022-09-07T12:27:34.589Z,264.38
2022-09-07T12:28:39.140Z,213.75
2022-09-07T12:29:35.786Z,241.88
2022-09-07T12:30:36.737Z,236.25
2022-09-07T12:32:58.829Z,225
2022-09-07T12:33:16.325Z,208.13
2022-09-07T12:34:15.965Z,180
2022-09-07T12:35:16.906Z,191.25
2022-09-07T12:36:18.158Z,208.13
2022-09-07T12:37:23.319Z,225
2022-09-07T12:38:18.303Z,236.25
2022-09-07T12:39:18.721Z,213.75
2022-09-07T12:40:20.014Z,202.5
2022-09-07T12:41:20.961Z,241.88
2022-09-07T12:42:52.290Z,270
2022-09-07T12:43:27.636Z,241.88
2022-09-07T12:44:26.079Z,225
2022-09-07T12:45:23.734Z,151.88
2022-09-07T12:46:23.980Z,241.88
2022-09-07T12:47:25.096Z,264.38
2022-09-07T12:48:24.431Z,264.38
2022-09-07T12:49:25.430Z,270
2022-09-07T12:50:28.368Z,270
2022-09-07T12:52:03.416Z,208.13
2022-09-07T12:52:32.318Z,281.25
2022-09-07T12:53:26.950Z,298.13
2022-09-07T12:54:27.867Z,292.5
2022-09-07T12:56:28.106Z,298.13
2022-09-07T12:56:45.207Z,298.13
2022-09-07T12:57:45.943Z,286.88
2022-09-07T12:58:46.299Z,286.88
2022-09-07T12:59:46.942Z,270
2022-09-07T13:00:47.156Z,275.63
2022-09-07T13:01:47.554Z,286.88
2022-09-07T13:02:48.971Z,281.25
2022-09-07T13:04:17.995Z,275.63
2022-09-07T13:04:48.626Z,270
2022-09-07T13:05:49.914Z,275.63
2022-09-07T13:07:19.529Z,264.38
2022-09-07T13:07:50.454Z,258.75
2022-09-07T13:08:50.382Z,258.75
2022-09-07T13:09:51.681Z,258.75
2022-09-07T13:10:51.333Z,253.13
2022-09-07T13:11:52.557Z,253.13
2022-09-07T13:14:23.333Z,253.13
2022-09-07T13:15:20.238Z,247.5
2022-09-07T13:16:12.894Z,253.13
2022-09-07T13:17:43.709Z,258.75
2022-09-07T13:18:13.920Z,264.38
2022-09-07T13:19:14.139Z,264.38
2022-09-07T13:20:14.279Z,264.38
2022-09-07T13:21:15.516Z,270
2022-09-07T13:22:15.969Z,264.38
2022-09-07T13:23:17.048Z,258.75
2022-09-07T13:25:03.312Z,241.88
2022-09-07T13:26:25.902Z,236.25
2022-09-07T13:27:20.147Z,241.88
2022-09-07T13:28:21.736Z,247.5
2022-09-07T13:30:24.137Z,253.13
2022-09-07T13:31:24.392Z,247.5
2022-09-07T13:33:07.792Z,230.63
2022-09-07T13:33:24.552Z,247.5
2022-09-07T13:34:25.560Z,241.88
2022-09-07T13:35:40.969Z,236.25
2022-09-07T13:36:31.188Z,230.63
2022-09-07T13:37:27.109Z,236.25
2022-09-07T13:38:28.323Z,230.63
2022-09-07T13:39:30.295Z,236.25
2022-09-07T13:40:29.935Z,230.63
2022-09-07T13:42:30.551Z,236.25
2022-09-07T13:43:31.620Z,151.88
2022-09-07T13:44:37.575Z,90
2022-09-07T13:45:33.215Z,61.88
2022-09-07T13:46:33.826Z,61.88
2022-09-07T13:47:33.792Z,90
2022-09-07T13:48:36.366Z,168.75
2022-09-07T13:50:37.860Z,180
2022-09-07T13:51:39.549Z,135
2022-09-07T13:52:37.460Z,168.75
2022-09-07T13:53:42.717Z,247.5
2022-09-07T13:54:40.457Z,230.63
2022-09-07T13:55:42.558Z,230.63
2022-09-07T13:56:40.779Z,225
2022-09-07T13:57:40.690Z,225
2022-09-07T13:58:41.042Z,225
2022-09-07T13:59:41.953Z,225
2022-09-07T14:00:43.617Z,196.88
2022-09-07T14:01:44.210Z,202.5
2022-09-07T14:02:44.726Z,219.38
2022-09-07T14:03:45.015Z,213.75
2022-09-07T14:04:44.929Z,208.13
2022-09-07T14:05:45.566Z,191.25
2022-09-07T14:06:45.617Z,208.13